sensor_id;sensor_type;location;lat;lon;timestamp;pressure;altitude;pressure_sealevel;temperature;humidity
25238;BME280;13185;50.872;5.306;2023-04-24T00:02:20;99861.09;;;9.24;93.80
25238;BME280;13185;50.872;5.306;2023-04-24T00:04:45;99863.16;;;9.20;93.98
25238;BME280;13185;50.872;5.306;2023-04-24T00:07:11;99869.22;;;9.22;94.03
25238;BME280;13185;50.872;5.306;2023-04-24T00:09:38;99865.69;;;9.22;94.29
25238;BME280;13185;50.872;5.306;2023-04-24T00:12:04;99865.94;;;9.19;94.22
25238;BME280;13185;50.872;5.306;2023-04-24T00:14:33;99867.75;;;9.18;94.20
25238;BME280;13185;50.872;5.306;2023-04-24T00:17:00;99866.25;;;9.14;94.30
25238;BME280;13185;50.872;5.306;2023-04-24T00:19:26;99867.84;;;9.17;94.26
25238;BME280;13185;50.872;5.306;2023-04-24T00:21:52;99880.50;;;9.15;94.53
25238;BME280;13185;50.872;5.306;2023-04-24T00:24:17;99875.25;;;9.13;94.85
25238;BME280;13185;50.872;5.306;2023-04-24T00:26:43;99874.41;;;9.13;94.76
25238;BME280;13185;50.872;5.306;2023-04-24T00:29:09;99875.88;;;9.17;94.96
25238;BME280;13185;50.872;5.306;2023-04-24T00:31:35;99870.88;;;9.12;94.99
25238;BME280;13185;50.872;5.306;2023-04-24T00:34:04;99878.91;;;9.12;94.89
25238;BME280;13185;50.872;5.306;2023-04-24T00:36:30;99871.72;;;9.13;95.03
25238;BME280;13185;50.872;5.306;2023-04-24T00:38:56;99880.59;;;9.13;95.12
25238;BME280;13185;50.872;5.306;2023-04-24T00:41:23;99871.31;;;9.06;95.57
25238;BME280;13185;50.872;5.306;2023-04-24T00:43:49;99867.72;;;9.07;95.85
25238;BME280;13185;50.872;5.306;2023-04-24T00:46:16;99868.56;;;9.08;95.79
25238;BME280;13185;50.872;5.306;2023-04-24T00:48:42;99873.78;;;9.09;95.52
25238;BME280;13185;50.872;5.306;2023-04-24T00:51:08;99877.44;;;9.08;95.70
25238;BME280;13185;50.872;5.306;2023-04-24T00:53:34;99866.75;;;9.08;95.62
25238;BME280;13185;50.872;5.306;2023-04-24T00:56:01;99872.22;;;9.07;95.81
25238;BME280;13185;50.872;5.306;2023-04-24T00:58:27;99873.06;;;9.07;95.90
25238;BME280;13185;50.872;5.306;2023-04-24T01:00:54;99880.22;;;9.07;95.78
25238;BME280;13185;50.872;5.306;2023-04-24T01:03:25;99878.41;;;9.07;95.73
25238;BME280;13185;50.872;5.306;2023-04-24T01:05:52;99870.47;;;9.06;95.87
25238;BME280;13185;50.872;5.306;2023-04-24T01:08:20;99874.00;;;9.06;95.93
25238;BME280;13185;50.872;5.306;2023-04-24T01:10:50;99890.81;;;9.08;95.97
25238;BME280;13185;50.872;5.306;2023-04-24T01:13:19;99871.31;;;9.06;96.37
25238;BME280;13185;50.872;5.306;2023-04-24T01:15:45;99884.81;;;9.05;96.33
25238;BME280;13185;50.872;5.306;2023-04-24T01:18:11;99873.16;;;9.06;96.23
25238;BME280;13185;50.872;5.306;2023-04-24T01:20:39;99875.81;;;9.06;96.28
25238;BME280;13185;50.872;5.306;2023-04-24T01:23:08;99881.28;;;9.04;96.52
25238;BME280;13185;50.872;5.306;2023-04-24T01:25:34;99867.78;;;9.06;96.55
25238;BME280;13185;50.872;5.306;2023-04-24T01:28:00;99868.75;;;9.05;96.37
25238;BME280;13185;50.872;5.306;2023-04-24T01:30:26;99861.09;;;9.00;96.41
25238;BME280;13185;50.872;5.306;2023-04-24T01:32:53;99868.03;;;9.03;96.28
25238;BME280;13185;50.872;5.306;2023-04-24T01:35:19;99867.78;;;9.06;96.03
25238;BME280;13185;50.872;5.306;2023-04-24T01:37:45;99869.25;;;8.99;96.31
25238;BME280;13185;50.872;5.306;2023-04-24T01:40:11;99878.84;;;9.01;96.59
25238;BME280;13185;50.872;5.306;2023-04-24T01:42:37;99879.94;;;8.99;96.43
25238;BME280;13185;50.872;5.306;2023-04-24T01:45:04;99866.69;;;8.97;96.73
25238;BME280;13185;50.872;5.306;2023-04-24T01:47:33;99882.72;;;8.97;96.78
25238;BME280;13185;50.872;5.306;2023-04-24T01:49:58;99879.19;;;8.96;96.87
25238;BME280;13185;50.872;5.306;2023-04-24T01:52:24;99877.59;;;8.94;98.82
25238;BME280;13185;50.872;5.306;2023-04-24T01:54:50;99869.78;;;8.91;99.42
25238;BME280;13185;50.872;5.306;2023-04-24T01:57:16;99886.94;;;8.88;100.00
25238;BME280;13185;50.872;5.306;2023-04-24T01:59:42;99884.25;;;8.88;100.00
25238;BME280;13185;50.872;5.306;2023-04-24T02:02:08;99872.69;;;8.88;100.00
25238;BME280;13185;50.872;5.306;2023-04-24T02:04:34;99883.59;;;8.85;100.00
25238;BME280;13185;50.872;5.306;2023-04-24T02:07:00;99884.56;;;8.84;100.00
25238;BME280;13185;50.872;5.306;2023-04-24T02:09:25;99881.50;;;8.77;100.00
25238;BME280;13185;50.872;5.306;2023-04-24T02:11:51;99881.63;;;8.76;100.00
25238;BME280;13185;50.872;5.306;2023-04-24T02:14:17;99879.81;;;8.76;100.00
25238;BME280;13185;50.872;5.306;2023-04-24T02:16:42;99877.13;;;8.76;100.00
25238;BME280;13185;50.872;5.306;2023-04-24T02:19:09;99877.22;;;8.75;100.00
25238;BME280;13185;50.872;5.306;2023-04-24T02:21:35;99885.47;;;8.72;100.00
25238;BME280;13185;50.872;5.306;2023-04-24T02:24:01;99883.66;;;8.72;100.00
25238;BME280;13185;50.872;5.306;2023-04-24T02:26:26;99889.09;;;8.71;100.00
25238;BME280;13185;50.872;5.306;2023-04-24T02:28:52;99880.59;;;8.65;100.00
25238;BME280;13185;50.872;5.306;2023-04-24T02:31:19;99879.81;;;8.63;100.00
25238;BME280;13185;50.872;5.306;2023-04-24T02:33:47;99888.06;;;8.60;100.00
25238;BME280;13185;50.872;5.306;2023-04-24T02:36:12;99883.69;;;8.59;100.00
25238;BME280;13185;50.872;5.306;2023-04-24T02:38:38;99881.97;;;8.58;100.00
25238;BME280;13185;50.872;5.306;2023-04-24T02:41:04;99880.69;;;8.51;100.00
25238;BME280;13185;50.872;5.306;2023-04-24T02:43:32;99873.75;;;8.49;100.00
25238;BME280;13185;50.872;5.306;2023-04-24T02:45:58;99880.94;;;8.48;100.00
25238;BME280;13185;50.872;5.306;2023-04-24T02:48:24;99874.00;;;8.46;100.00
25238;BME280;13185;50.872;5.306;2023-04-24T02:50:50;99878.56;;;8.44;100.00
25238;BME280;13185;50.872;5.306;2023-04-24T02:53:16;99874.19;;;8.43;100.00
25238;BME280;13185;50.872;5.306;2023-04-24T02:55:42;99875.91;;;8.44;100.00
25238;BME280;13185;50.872;5.306;2023-04-24T02:58:07;99882.97;;;8.45;100.00
25238;BME280;13185;50.872;5.306;2023-04-24T03:00:33;99887.66;;;8.41;100.00
25238;BME280;13185;50.872;5.306;2023-04-24T03:02:58;99885.22;;;8.38;100.00
25238;BME280;13185;50.872;5.306;2023-04-24T03:05:24;99881.13;;;8.32;100.00
25238;BME280;13185;50.872;5.306;2023-04-24T03:07:50;99891.72;;;8.34;100.00
25238;BME280;13185;50.872;5.306;2023-04-24T03:10:18;99883.72;;;8.34;100.00
25238;BME280;13185;50.872;5.306;2023-04-24T03:12:43;99890.00;;;8.33;100.00
25238;BME280;13185;50.872;5.306;2023-04-24T03:15:09;99884.59;;;8.34;100.00
25238;BME280;13185;50.872;5.306;2023-04-24T03:17:36;99884.59;;;8.34;100.00
25238;BME280;13185;50.872;5.306;2023-04-24T03:20:02;99888.13;;;8.35;100.00
25238;BME280;13185;50.872;5.306;2023-04-24T03:22:31;99887.28;;;8.34;100.00
25238;BME280;13185;50.872;5.306;2023-04-24T03:25:00;99886.47;;;8.32;100.00
25238;BME280;13185;50.872;5.306;2023-04-24T03:27:26;99891.91;;;8.31;100.00
25238;BME280;13185;50.872;5.306;2023-04-24T03:29:58;99900.91;;;8.30;100.00
25238;BME280;13185;50.872;5.306;2023-04-24T03:32:32;99891.72;;;8.21;100.00
25238;BME280;13185;50.872;5.306;2023-04-24T03:34:59;99890.66;;;8.24;100.00
25238;BME280;13185;50.872;5.306;2023-04-24T03:37:25;99885.22;;;8.25;100.00
25238;BME280;13185;50.872;5.306;2023-04-24T03:40:02;99895.22;;;8.22;100.00
25238;BME280;13185;50.872;5.306;2023-04-24T03:42:28;99894.19;;;8.24;100.00
25238;BME280;13185;50.872;5.306;2023-04-24T03:44:55;99881.81;;;8.23;100.00
25238;BME280;13185;50.872;5.306;2023-04-24T03:47:24;99894.28;;;8.23;100.00
25238;BME280;13185;50.872;5.306;2023-04-24T03:49:51;99894.38;;;8.21;100.00
25238;BME280;13185;50.872;5.306;2023-04-24T03:52:17;99896.19;;;8.21;100.00
25238;BME280;13185;50.872;5.306;2023-04-24T03:54:43;99898.00;;;8.20;100.00
25238;BME280;13185;50.872;5.306;2023-04-24T03:57:10;99898.25;;;8.17;100.00
25238;BME280;13185;50.872;5.306;2023-04-24T03:59:40;99892.91;;;8.17;100.00
25238;BME280;13185;50.872;5.306;2023-04-24T04:02:16;99901.13;;;8.14;100.00
25238;BME280;13185;50.872;5.306;2023-04-24T04:04:42;99895.88;;;8.13;100.00
25238;BME280;13185;50.872;5.306;2023-04-24T04:07:07;99903.16;;;8.10;100.00
25238;BME280;13185;50.872;5.306;2023-04-24T04:09:34;99902.19;;;8.11;100.00
25238;BME280;13185;50.872;5.306;2023-04-24T04:11:59;99913.94;;;8.09;100.00
25238;BME280;13185;50.872;5.306;2023-04-24T04:14:27;99918.31;;;8.10;100.00
25238;BME280;13185;50.872;5.306;2023-04-24T04:16:52;99911.28;;;8.09;100.00
25238;BME280;13185;50.872;5.306;2023-04-24T04:19:19;99908.50;;;8.10;100.00
25238;BME280;13185;50.872;5.306;2023-04-24T04:21:44;99899.00;;;8.06;100.00
25238;BME280;13185;50.872;5.306;2023-04-24T04:24:23;99913.09;;;8.08;100.00
25238;BME280;13185;50.872;5.306;2023-04-24T04:26:50;99913.09;;;8.08;100.00
25238;BME280;13185;50.872;5.306;2023-04-24T04:29:35;99917.69;;;8.06;100.00
25238;BME280;13185;50.872;5.306;2023-04-24T04:32:03;99920.25;;;8.08;100.00
25238;BME280;13185;50.872;5.306;2023-04-24T04:34:29;99916.19;;;8.02;100.00
25238;BME280;13185;50.872;5.306;2023-04-24T04:36:57;99917.47;;;7.97;100.00
25238;BME280;13185;50.872;5.306;2023-04-24T04:39:43;99935.41;;;7.95;100.00
25238;BME280;13185;50.872;5.306;2023-04-24T04:42:17;99929.09;;;7.96;100.00
25238;BME280;13185;50.872;5.306;2023-04-24T04:44:44;99933.69;;;7.94;100.00
25238;BME280;13185;50.872;5.306;2023-04-24T04:47:16;99932.75;;;7.95;100.00
25238;BME280;13185;50.872;5.306;2023-04-24T04:49:43;99947.06;;;7.94;100.00
25238;BME280;13185;50.872;5.306;2023-04-24T04:52:16;99953.53;;;7.90;100.00
25238;BME280;13185;50.872;5.306;2023-04-24T04:54:43;99949.50;;;7.84;100.00
25238;BME280;13185;50.872;5.306;2023-04-24T04:57:10;99971.47;;;7.88;100.00
25238;BME280;13185;50.872;5.306;2023-04-24T04:59:36;99960.91;;;7.86;100.00
25238;BME280;13185;50.872;5.306;2023-04-24T05:02:07;99964.31;;;7.88;100.00
25238;BME280;13185;50.872;5.306;2023-04-24T05:04:32;99967.84;;;7.89;100.00
25238;BME280;13185;50.872;5.306;2023-04-24T05:06:58;99968.06;;;7.86;100.00
25238;BME280;13185;50.872;5.306;2023-04-24T05:09:26;99972.34;;;7.88;100.00
25238;BME280;13185;50.872;5.306;2023-04-24T05:11:59;99975.13;;;7.87;100.00
25238;BME280;13185;50.872;5.306;2023-04-24T05:14:26;99972.44;;;7.87;100.00
25238;BME280;13185;50.872;5.306;2023-04-24T05:16:52;99977.69;;;7.88;100.00
25238;BME280;13185;50.872;5.306;2023-04-24T05:19:24;99987.41;;;7.89;100.00
25238;BME280;13185;50.872;5.306;2023-04-24T05:21:49;99994.34;;;7.92;100.00
25238;BME280;13185;50.872;5.306;2023-04-24T05:24:15;100000.63;;;7.91;100.00
25238;BME280;13185;50.872;5.306;2023-04-24T05:26:45;99998.06;;;7.89;100.00
25238;BME280;13185;50.872;5.306;2023-04-24T05:29:13;99999.03;;;7.88;100.00
25238;BME280;13185;50.872;5.306;2023-04-24T05:31:39;100008.84;;;7.88;100.00
25238;BME280;13185;50.872;5.306;2023-04-24T05:34:04;100014.31;;;7.86;100.00
25238;BME280;13185;50.872;5.306;2023-04-24T05:36:31;100019.53;;;7.88;100.00
25238;BME280;13185;50.872;5.306;2023-04-24T05:38:57;100024.88;;;7.88;100.00
25238;BME280;13185;50.872;5.306;2023-04-24T05:41:22;100033.09;;;7.85;100.00
25238;BME280;13185;50.872;5.306;2023-04-24T05:43:48;100029.69;;;7.82;100.00
25238;BME280;13185;50.872;5.306;2023-04-24T05:46:14;100044.75;;;7.84;100.00
25238;BME280;13185;50.872;5.306;2023-04-24T05:48:40;100050.81;;;7.86;100.00
25238;BME280;13185;50.872;5.306;2023-04-24T05:51:05;100045.78;;;7.81;100.00
25238;BME280;13185;50.872;5.306;2023-04-24T05:53:31;100052.84;;;7.82;100.00
25238;BME280;13185;50.872;5.306;2023-04-24T05:55:56;100063.59;;;7.80;100.00
25238;BME280;13185;50.872;5.306;2023-04-24T05:58:22;100067.34;;;7.78;100.00
25238;BME280;13185;50.872;5.306;2023-04-24T06:00:49;100072.78;;;7.76;100.00
25238;BME280;13185;50.872;5.306;2023-04-24T06:03:16;100091.56;;;7.75;100.00
25238;BME280;13185;50.872;5.306;2023-04-24T06:05:42;100090.94;;;7.71;100.00
25238;BME280;13185;50.872;5.306;2023-04-24T06:08:07;100107.88;;;7.70;100.00
25238;BME280;13185;50.872;5.306;2023-04-24T06:10:37;100107.13;;;7.68;100.00
25238;BME280;13185;50.872;5.306;2023-04-24T06:13:04;100105.50;;;7.66;100.00
25238;BME280;13185;50.872;5.306;2023-04-24T06:15:31;100097.41;;;7.67;100.00
25238;BME280;13185;50.872;5.306;2023-04-24T06:18:02;100096.53;;;7.67;100.00
25238;BME280;13185;50.872;5.306;2023-04-24T06:20:28;100107.88;;;7.70;100.00
25238;BME280;13185;50.872;5.306;2023-04-24T06:22:54;100107.69;;;7.73;100.00
25238;BME280;13185;50.872;5.306;2023-04-24T06:25:19;100110.16;;;7.76;100.00
25238;BME280;13185;50.872;5.306;2023-04-24T06:27:45;100120.06;;;7.74;100.00
25238;BME280;13185;50.872;5.306;2023-04-24T06:30:11;100122.94;;;7.71;100.00
25238;BME280;13185;50.872;5.306;2023-04-24T06:32:37;100146.19;;;7.69;100.00
25238;BME280;13185;50.872;5.306;2023-04-24T06:35:03;100161.56;;;7.66;100.00
25238;BME280;13185;50.872;5.306;2023-04-24T06:37:29;100153.66;;;7.64;100.00
25238;BME280;13185;50.872;5.306;2023-04-24T06:39:55;100160.03;;;7.62;100.00
25238;BME280;13185;50.872;5.306;2023-04-24T06:42:20;100156.69;;;7.58;100.00
25238;BME280;13185;50.872;5.306;2023-04-24T06:44:48;100164.59;;;7.60;100.00
25238;BME280;13185;50.872;5.306;2023-04-24T06:47:14;100182.25;;;7.62;100.00
25238;BME280;13185;50.872;5.306;2023-04-24T06:49:41;100175.22;;;7.61;100.00
25238;BME280;13185;50.872;5.306;2023-04-24T06:52:06;100180.63;;;7.60;100.00
25238;BME280;13185;50.872;5.306;2023-04-24T06:54:32;100178.03;;;7.58;100.00
25238;BME280;13185;50.872;5.306;2023-04-24T06:56:59;100186.91;;;7.59;100.00
25238;BME280;13185;50.872;5.306;2023-04-24T06:59:26;100185.19;;;7.58;100.00
25238;BME280;13185;50.872;5.306;2023-04-24T07:01:52;100195.00;;;7.57;100.00
25238;BME280;13185;50.872;5.306;2023-04-24T07:04:18;100198.44;;;7.59;100.00
25238;BME280;13185;50.872;5.306;2023-04-24T07:06:45;100194.75;;;7.62;100.00
25238;BME280;13185;50.872;5.306;2023-04-24T07:09:11;100197.41;;;7.62;100.00
25238;BME280;13185;50.872;5.306;2023-04-24T07:11:39;100205.13;;;7.66;100.00
25238;BME280;13185;50.872;5.306;2023-04-24T07:14:06;100203.41;;;7.65;100.00
25238;BME280;13185;50.872;5.306;2023-04-24T07:16:32;100205.13;;;7.66;100.00
25238;BME280;13185;50.872;5.306;2023-04-24T07:18:57;100205.97;;;7.67;100.00
25238;BME280;13185;50.872;5.306;2023-04-24T07:21:23;100202.06;;;7.72;100.00
25238;BME280;13185;50.872;5.306;2023-04-24T07:23:48;100215.97;;;7.77;100.00
25238;BME280;13185;50.872;5.306;2023-04-24T07:26:14;100216.81;;;7.78;100.00
25238;BME280;13185;50.872;5.306;2023-04-24T07:28:40;100225.41;;;7.83;100.00
25238;BME280;13185;50.872;5.306;2023-04-24T07:31:07;100222.75;;;7.83;100.00
25238;BME280;13185;50.872;5.306;2023-04-24T07:33:33;100225.41;;;7.83;100.00
25238;BME280;13185;50.872;5.306;2023-04-24T07:35:59;100235.31;;;7.81;100.00
25238;BME280;13185;50.872;5.306;2023-04-24T07:38:25;100240.56;;;7.82;100.00
25238;BME280;13185;50.872;5.306;2023-04-24T07:40:51;100238.75;;;7.83;100.00
25238;BME280;13185;50.872;5.306;2023-04-24T07:43:17;100243.25;;;7.82;100.00
25238;BME280;13185;50.872;5.306;2023-04-24T07:45:43;100247.63;;;7.84;100.00
25238;BME280;13185;50.872;5.306;2023-04-24T07:48:08;100253.06;;;7.82;100.00
25238;BME280;13185;50.872;5.306;2023-04-24T07:50:34;100260.13;;;7.83;100.00
25238;BME280;13185;50.872;5.306;2023-04-24T07:53:01;100262.78;;;7.83;100.00
25238;BME280;13185;50.872;5.306;2023-04-24T07:55:26;100269.09;;;7.82;100.00
25238;BME280;13185;50.872;5.306;2023-04-24T07:57:52;100279.06;;;7.78;100.00
25238;BME280;13185;50.872;5.306;2023-04-24T08:00:18;100275.44;;;7.79;100.00
25238;BME280;13185;50.872;5.306;2023-04-24T08:02:43;100282.50;;;7.80;100.00
25238;BME280;13185;50.872;5.306;2023-04-24T08:05:09;100285.09;;;7.82;100.00
25238;BME280;13185;50.872;5.306;2023-04-24T08:07:35;100295.69;;;7.84;100.00
25238;BME280;13185;50.872;5.306;2023-04-24T08:10:01;100290.03;;;7.88;100.00
25238;BME280;13185;50.872;5.306;2023-04-24T08:12:28;100300.63;;;7.90;100.00
25238;BME280;13185;50.872;5.306;2023-04-24T08:14:54;100311.28;;;7.90;100.00
25238;BME280;13185;50.872;5.306;2023-04-24T08:17:20;100307.88;;;7.88;100.00
25238;BME280;13185;50.872;5.306;2023-04-24T08:19:45;100323.13;;;7.86;100.00
25238;BME280;13185;50.872;5.306;2023-04-24T08:22:16;100323.13;;;7.86;100.00
25238;BME280;13185;50.872;5.306;2023-04-24T08:24:42;100337.81;;;7.93;100.00
25238;BME280;13185;50.872;5.306;2023-04-24T08:27:09;100335.34;;;8.04;100.00
25238;BME280;13185;50.872;5.306;2023-04-24T08:29:34;100336.47;;;8.14;100.00
25238;BME280;13185;50.872;5.306;2023-04-24T08:32:00;100341.16;;;8.25;100.00
25238;BME280;13185;50.872;5.306;2023-04-24T08:34:25;100350.56;;;8.30;100.00
25238;BME280;13185;50.872;5.306;2023-04-24T08:36:51;100348.50;;;8.35;100.00
25238;BME280;13185;50.872;5.306;2023-04-24T08:39:17;100352.59;;;8.41;100.00
25238;BME280;13185;50.872;5.306;2023-04-24T08:41:43;100363.97;;;8.45;100.00
25238;BME280;13185;50.872;5.306;2023-04-24T08:44:11;100371.03;;;8.46;100.00
25238;BME280;13185;50.872;5.306;2023-04-24T08:46:39;100373.31;;;8.37;100.00
25238;BME280;13185;50.872;5.306;2023-04-24T08:49:05;100386.16;;;8.31;100.00
25238;BME280;13185;50.872;5.306;2023-04-24T08:51:31;100388.94;;;8.29;100.00
25238;BME280;13185;50.872;5.306;2023-04-24T08:53:57;100388.94;;;8.29;100.00
25238;BME280;13185;50.872;5.306;2023-04-24T08:56:23;100394.28;;;8.29;100.00
25238;BME280;13185;50.872;5.306;2023-04-24T08:58:53;100391.41;;;8.32;100.00
25238;BME280;13185;50.872;5.306;2023-04-24T09:01:20;100394.94;;;8.33;100.00
25238;BME280;13185;50.872;5.306;2023-04-24T09:03:48;100398.44;;;8.35;100.00
25238;BME280;13185;50.872;5.306;2023-04-24T09:06:14;100394.06;;;8.32;100.00
25238;BME280;13185;50.872;5.306;2023-04-24T09:08:42;100396.59;;;8.35;100.00
25238;BME280;13185;50.872;5.306;2023-04-24T09:11:09;100404.22;;;8.42;100.00
25238;BME280;13185;50.872;5.306;2023-04-24T09:13:36;100396.03;;;8.45;100.00
25238;BME280;13185;50.872;5.306;2023-04-24T09:16:02;100399.44;;;8.61;100.00
25238;BME280;13185;50.872;5.306;2023-04-24T09:18:27;100404.75;;;8.75;100.00
25238;BME280;13185;50.872;5.306;2023-04-24T09:21:00;100399.75;;;8.98;100.00
25238;BME280;13185;50.872;5.306;2023-04-24T09:23:27;100416.94;;;9.20;100.00
25238;BME280;13185;50.872;5.306;2023-04-24T09:25:57;100408.31;;;9.30;100.00
25238;BME280;13185;50.872;5.306;2023-04-24T09:28:31;100413.13;;;9.37;100.00
25238;BME280;13185;50.872;5.306;2023-04-24T09:31:13;100416.38;;;9.42;100.00
25238;BME280;13185;50.872;5.306;2023-04-24T09:34:01;100416.50;;;9.53;100.00
25238;BME280;13185;50.872;5.306;2023-04-24T09:36:32;100421.75;;;9.55;100.00
25238;BME280;13185;50.872;5.306;2023-04-24T09:39:10;100428.53;;;9.61;100.00
25238;BME280;13185;50.872;5.306;2023-04-24T09:42:06;100428.53;;;9.61;99.27
25238;BME280;13185;50.872;5.306;2023-04-24T09:44:34;100431.63;;;9.67;99.17
25238;BME280;13185;50.872;5.306;2023-04-24T09:47:00;100436.47;;;9.75;98.84
25238;BME280;13185;50.872;5.306;2023-04-24T09:49:30;100432.31;;;9.83;98.10
25238;BME280;13185;50.872;5.306;2023-04-24T09:52:06;100433.28;;;9.95;98.31
25238;BME280;13185;50.872;5.306;2023-04-24T09:54:32;100434.47;;;9.91;95.22
25238;BME280;13185;50.872;5.306;2023-04-24T09:56:58;100439.50;;;9.83;95.41
25238;BME280;13185;50.872;5.306;2023-04-24T09:59:25;100447.41;;;9.72;96.38
25238;BME280;13185;50.872;5.306;2023-04-24T10:01:50;100449.94;;;9.61;97.59
25238;BME280;13185;50.872;5.306;2023-04-24T10:04:25;100455.34;;;9.46;97.45
25238;BME280;13185;50.872;5.306;2023-04-24T10:06:52;100459.59;;;9.36;96.37
25238;BME280;13185;50.872;5.306;2023-04-24T10:09:19;100469.34;;;9.37;96.33
25238;BME280;13185;50.872;5.306;2023-04-24T10:11:46;100469.91;;;9.42;96.84
25238;BME280;13185;50.872;5.306;2023-04-24T10:14:14;100462.88;;;9.54;96.83
25238;BME280;13185;50.872;5.306;2023-04-24T10:16:41;100459.47;;;9.65;96.51
25238;BME280;13185;50.872;5.306;2023-04-24T10:19:07;100461.03;;;9.81;96.88
25238;BME280;13185;50.872;5.306;2023-04-24T10:21:34;100470.38;;;10.01;97.10
25238;BME280;13185;50.872;5.306;2023-04-24T10:24:00;100470.19;;;10.17;95.25
25238;BME280;13185;50.872;5.306;2023-04-24T10:26:29;100482.22;;;10.24;93.12
25238;BME280;13185;50.872;5.306;2023-04-24T10:28:57;100464.97;;;10.28;90.39
25238;BME280;13185;50.872;5.306;2023-04-24T10:31:23;100479.56;;;10.24;88.22
25238;BME280;13185;50.872;5.306;2023-04-24T10:33:49;100473.06;;;10.14;88.00
25238;BME280;13185;50.872;5.306;2023-04-24T10:36:17;100480.03;;;10.17;89.28
25238;BME280;13185;50.872;5.306;2023-04-24T10:38:45;100474.22;;;10.10;87.74
25238;BME280;13185;50.872;5.306;2023-04-24T10:41:12;100489.28;;;10.12;88.75
25238;BME280;13185;50.872;5.306;2023-04-24T10:43:45;100488.94;;;10.17;89.60
25238;BME280;13185;50.872;5.306;2023-04-24T10:46:19;100493.47;;;10.29;89.12
25238;BME280;13185;50.872;5.306;2023-04-24T10:48:53;100487.25;;;10.41;87.36
25238;BME280;13185;50.872;5.306;2023-04-24T10:51:22;100498.63;;;10.58;87.46
25238;BME280;13185;50.872;5.306;2023-04-24T10:53:50;100490.69;;;10.69;86.54
25238;BME280;13185;50.872;5.306;2023-04-24T10:56:16;100487.78;;;10.85;84.94
25238;BME280;13185;50.872;5.306;2023-04-24T10:58:52;100491.59;;;11.06;85.01
25238;BME280;13185;50.872;5.306;2023-04-24T11:01:29;100491.97;;;11.25;81.47
25238;BME280;13185;50.872;5.306;2023-04-24T11:03:59;100477.00;;;11.34;82.24
25238;BME280;13185;50.872;5.306;2023-04-24T11:06:32;100493.22;;;11.33;80.30
25238;BME280;13185;50.872;5.306;2023-04-24T11:09:05;100499.91;;;11.14;76.84
25238;BME280;13185;50.872;5.306;2023-04-24T11:11:32;100500.63;;;11.05;75.76
25238;BME280;13185;50.872;5.306;2023-04-24T11:21:54;100516.69;;;11.18;76.30
25238;BME280;13185;50.872;5.306;2023-04-24T11:29:42;100521.97;;;11.43;76.48
25238;BME280;13185;50.872;5.306;2023-04-24T11:34:51;100531.53;;;11.35;76.05
25238;BME280;13185;50.872;5.306;2023-04-24T11:37:17;100538.59;;;11.48;75.35
25238;BME280;13185;50.872;5.306;2023-04-24T11:39:42;100536.41;;;11.53;74.52
25238;BME280;13185;50.872;5.306;2023-04-24T11:42:09;100536.91;;;11.71;75.50
25238;BME280;13185;50.872;5.306;2023-04-24T11:44:35;100532.50;;;11.70;73.19
25238;BME280;13185;50.872;5.306;2023-04-24T11:47:05;100542.59;;;11.79;73.96
25238;BME280;13185;50.872;5.306;2023-04-24T11:49:32;100540.06;;;11.76;72.25
25238;BME280;13185;50.872;5.306;2023-04-24T11:51:59;100543.25;;;11.70;70.73
25238;BME280;13185;50.872;5.306;2023-04-24T11:54:26;100552.22;;;11.58;70.56
25238;BME280;13185;50.872;5.306;2023-04-24T11:56:51;100555.06;;;11.68;71.32
25238;BME280;13185;50.872;5.306;2023-04-24T11:59:17;100552.03;;;11.72;70.67
25238;BME280;13185;50.872;5.306;2023-04-24T12:01:46;100558.81;;;11.78;70.38
25238;BME280;13185;50.872;5.306;2023-04-24T12:04:12;100568.00;;;11.87;70.45
25238;BME280;13185;50.872;5.306;2023-04-24T12:06:38;100567.69;;;11.91;70.92
25238;BME280;13185;50.872;5.306;2023-04-24T12:09:04;100559.78;;;12.01;70.73
25238;BME280;13185;50.872;5.306;2023-04-24T12:11:30;100563.94;;;12.05;69.31
25238;BME280;13185;50.872;5.306;2023-04-24T12:13:55;100567.84;;;12.01;68.83
25238;BME280;13185;50.872;5.306;2023-04-24T12:16:21;100559.94;;;12.10;69.30
25238;BME280;13185;50.872;5.306;2023-04-24T12:18:47;100568.38;;;12.17;70.32
25238;BME280;13185;50.872;5.306;2023-04-24T12:21:20;100580.34;;;12.13;69.44
25238;BME280;13185;50.872;5.306;2023-04-24T12:23:46;100575.31;;;12.08;70.00
25238;BME280;13185;50.872;5.306;2023-04-24T12:26:17;100569.44;;;12.03;69.33
25238;BME280;13185;50.872;5.306;2023-04-24T12:28:47;100583.00;;;12.02;69.21
25238;BME280;13185;50.872;5.306;2023-04-24T12:31:13;100582.63;;;12.06;69.15
25238;BME280;13185;50.872;5.306;2023-04-24T12:33:39;100572.09;;;12.27;69.25
25238;BME280;13185;50.872;5.306;2023-04-24T12:36:04;100574.06;;;12.36;69.10
25238;BME280;13185;50.872;5.306;2023-04-24T12:38:31;100580.72;;;12.43;68.14
25238;BME280;13185;50.872;5.306;2023-04-24T12:41:09;100586.97;;;12.55;67.49
25238;BME280;13185;50.872;5.306;2023-04-24T12:43:36;100573.13;;;12.49;65.88
25238;BME280;13185;50.872;5.306;2023-04-24T12:46:02;100579.50;;;12.59;65.44
25238;BME280;13185;50.872;5.306;2023-04-24T12:48:28;100582.16;;;12.83;67.14
25238;BME280;13185;50.872;5.306;2023-04-24T12:50:54;100580.91;;;12.87;65.43
25238;BME280;13185;50.872;5.306;2023-04-24T12:53:21;100583.44;;;12.66;64.38
25238;BME280;13185;50.872;5.306;2023-04-24T12:55:47;100583.31;;;12.56;64.84
25238;BME280;13185;50.872;5.306;2023-04-24T12:58:19;100579.97;;;12.41;64.83
25238;BME280;13185;50.872;5.306;2023-04-24T13:00:46;100594.97;;;12.33;64.18
25238;BME280;13185;50.872;5.306;2023-04-24T13:03:12;100583.44;;;12.55;65.52
25238;BME280;13185;50.872;5.306;2023-04-24T13:05:37;100596.44;;;12.72;65.84
25238;BME280;13185;50.872;5.306;2023-04-24T13:08:03;100594.13;;;12.90;66.28
25238;BME280;13185;50.872;5.306;2023-04-24T13:10:29;100583.84;;;12.84;62.76
25238;BME280;13185;50.872;5.306;2023-04-24T13:12:55;100583.34;;;12.90;64.32